Time;durP1;ratioP1;P1;durP2;ratioP2;P2;SDS_P1;SDS_P2;PMS_P1;PMS_P2;Temp;Humidity;BMP_temperature;BMP_pressure;BME280_temperature;BME280_humidity;BME280_pressure;Samples;Min_cycle;Max_cycle;Signal;HPM_P1;HPM_P2
2022/08/21 00:02:03;;;;;;;5.13;3.38;;;15.60;99.90;;;;;;4792502;29;20520;-84
2022/08/21 00:04:31;;;;;;;2.33;2.13;;;15.70;99.90;;;;;;4793371;29;20061;-84
2022/08/21 00:06:59;;;;;;;2.42;2.20;;;15.60;99.90;;;;;;4807366;29;20050;-84
2022/08/21 00:09:26;;;;;;;1.95;1.75;;;15.60;99.90;;;;;;4806839;29;20050;-84
2022/08/21 00:11:54;;;;;;;2.63;2.42;;;15.60;99.90;;;;;;4808265;29;20050;-85
2022/08/21 00:14:22;;;;;;;2.00;1.80;;;15.60;99.90;;;;;;4823274;29;20046;-84
2022/08/21 00:16:50;;;;;;;2.25;1.98;;;15.60;99.90;;;;;;4805041;29;20442;-83
2022/08/21 00:19:19;;;;;;;2.05;1.90;;;15.60;99.90;;;;;;4791709;29;20063;-83
2022/08/21 00:21:48;;;;;;;1.58;1.35;;;15.60;99.90;;;;;;4804208;29;20035;-84
2022/08/21 00:24:17;;;;;;;2.78;2.58;;;15.70;99.90;;;;;;4819723;29;20054;-84
2022/08/21 00:26:46;;;;;;;2.70;2.10;;;15.60;99.90;;;;;;4807214;29;20054;-83
2022/08/21 00:29:14;;;;;;;1.40;1.30;;;15.60;99.90;;;;;;4788958;29;20493;-84
2022/08/21 00:31:43;;;;;;;2.67;2.45;;;15.60;99.90;;;;;;4789589;29;20509;-83
2022/08/21 00:34:12;;;;;;;3.03;2.13;;;15.60;99.90;;;;;;4804172;29;20054;-84
2022/08/21 00:36:40;;;;;;;2.70;2.50;;;15.60;99.90;;;;;;4789495;29;20062;-84
2022/08/21 00:39:09;;;;;;;1.23;1.23;;;15.70;99.90;;;;;;4803231;29;20051;-84
2022/08/21 00:41:38;;;;;;;2.35;2.15;;;15.70;99.90;;;;;;4804444;29;20058;-84
2022/08/21 00:44:13;;;;;;;1.58;1.45;;;15.70;99.90;;;;;;4789857;29;20058;-85
2022/08/21 00:46:42;;;;;;;1.92;1.67;;;15.70;99.90;;;;;;4797114;29;20050;-83
2022/08/21 00:49:12;;;;;;;2.90;1.60;;;15.70;99.90;;;;;;4804327;29;20049;-83
2022/08/21 00:51:47;;;;;;;1.77;1.67;;;15.70;99.90;;;;;;4807287;29;20062;-83
2022/08/21 00:54:16;;;;;;;2.03;1.83;;;15.80;99.90;;;;;;4792122;29;20058;-85
2022/08/21 00:56:49;;;;;;;2.58;1.40;;;15.70;99.90;;;;;;4807971;29;20061;-83
2022/08/21 00:59:20;;;;;;;1.42;1.33;;;15.70;99.90;;;;;;4798016;29;20054;-84
2022/08/21 01:01:49;;;;;;;1.75;1.65;;;15.70;99.90;;;;;;4789220;29;20046;-83
2022/08/21 01:04:17;;;;;;;1.65;1.52;;;15.70;99.90;;;;;;4808579;29;20050;-84
2022/08/21 01:06:45;;;;;;;1.83;1.48;;;15.60;99.90;;;;;;4792167;29;20066;-84
2022/08/21 01:09:14;;;;;;;1.58;1.48;;;15.70;99.90;;;;;;4795502;29;20049;-84
2022/08/21 01:11:45;;;;;;;2.60;1.65;;;15.70;99.90;;;;;;4815215;29;20394;-84
2022/08/21 01:14:14;;;;;;;3.10;1.90;;;15.60;99.90;;;;;;4840567;29;20050;-85
2022/08/21 01:16:46;;;;;;;1.85;1.65;;;15.60;99.90;;;;;;4810701;29;20054;-84
2022/08/21 01:19:16;;;;;;;3.83;1.70;;;15.60;99.90;;;;;;4810010;29;20073;-83
2022/08/21 01:21:44;;;;;;;1.85;1.50;;;15.60;99.90;;;;;;4809870;29;20046;-83
2022/08/21 01:24:12;;;;;;;2.33;1.95;;;15.50;99.90;;;;;;4826032;29;20077;-84
2022/08/21 01:26:41;;;;;;;2.33;1.98;;;15.50;99.90;;;;;;4828953;29;20062;-84
2022/08/21 01:29:12;;;;;;;3.28;2.03;;;15.50;99.90;;;;;;4823300;29;20412;-84
2022/08/21 01:31:40;;;;;;;2.47;2.22;;;15.50;99.90;;;;;;4790284;29;20047;-83
2022/08/21 01:34:09;;;;;;;1.98;1.42;;;15.40;99.90;;;;;;4823394;29;20038;-83
2022/08/21 01:36:37;;;;;;;4.20;1.63;;;15.40;99.90;;;;;;4807497;29;20481;-84
2022/08/21 01:39:05;;;;;;;6.03;2.58;;;15.40;99.90;;;;;;4822878;29;20053;-83
2022/08/21 01:41:33;;;;;;;2.95;2.42;;;15.40;99.90;;;;;;4823439;29;20057;-84
2022/08/21 01:44:00;;;;;;;3.63;1.80;;;15.30;99.90;;;;;;4807469;29;20049;-84
2022/08/21 01:46:29;;;;;;;1.35;1.25;;;15.40;99.90;;;;;;4806727;29;20042;-84
2022/08/21 01:48:57;;;;;;;2.60;1.58;;;15.30;99.90;;;;;;4806580;29;20059;-83
2022/08/21 01:51:24;;;;;;;1.55;1.30;;;15.40;99.90;;;;;;4808547;29;20058;-84
2022/08/21 01:53:52;;;;;;;1.85;1.58;;;15.40;99.90;;;;;;4804902;29;20047;-84
2022/08/21 01:56:20;;;;;;;1.83;1.70;;;15.30;99.90;;;;;;4804341;29;20070;-83
2022/08/21 01:58:55;;;;;;;2.30;1.42;;;15.30;99.90;;;;;;4818491;29;20039;-83
2022/08/21 02:01:23;;;;;;;2.75;2.53;;;15.30;99.90;;;;;;4823330;29;20058;-83
2022/08/21 02:03:50;;;;;;;1.52;1.38;;;15.30;99.90;;;;;;4807381;29;20058;-83
2022/08/21 02:06:18;;;;;;;1.50;1.40;;;15.20;99.90;;;;;;4822947;29;20386;-83
2022/08/21 02:08:46;;;;;;;1.80;1.70;;;15.20;99.90;;;;;;4823143;29;20070;-84
2022/08/21 02:11:14;;;;;;;1.63;1.33;;;15.20;99.90;;;;;;4822898;29;20067;-83
2022/08/21 02:13:42;;;;;;;2.78;1.60;;;15.20;99.90;;;;;;4806941;29;20042;-83
2022/08/21 02:16:10;;;;;;;2.25;1.63;;;15.10;99.90;;;;;;4813882;29;20047;-84
2022/08/21 02:18:43;;;;;;;1.45;1.35;;;15.10;99.90;;;;;;4821169;29;20047;-83
2022/08/21 02:21:16;;;;;;;2.17;1.60;;;15.10;99.90;;;;;;4806971;29;20044;-83
2022/08/21 02:23:44;;;;;;;2.28;1.50;;;15.20;99.90;;;;;;4808216;29;20051;-83
2022/08/21 02:26:12;;;;;;;1.50;1.40;;;15.20;99.90;;;;;;4810143;29;20050;-84
2022/08/21 02:28:42;;;;;;;1.58;1.48;;;15.10;99.90;;;;;;4826346;29;20050;-83
2022/08/21 02:31:10;;;;;;;1.52;1.23;;;15.10;99.90;;;;;;4809535;29;20050;-83
2022/08/21 02:33:39;;;;;;;1.80;1.50;;;15.10;99.90;;;;;;4826000;29;20046;-83
2022/08/21 02:36:08;;;;;;;1.75;1.63;;;15.10;99.90;;;;;;4795169;29;20059;-83
2022/08/21 02:38:38;;;;;;;1.05;1.05;;;15.00;99.90;;;;;;4809032;29;20050;-83
2022/08/21 02:41:08;;;;;;;1.58;1.40;;;15.00;99.90;;;;;;4809965;29;20058;-83
2022/08/21 02:43:36;;;;;;;0.98;0.98;;;15.00;99.90;;;;;;4826485;29;20046;-83
2022/08/21 02:46:05;;;;;;;1.20;1.10;;;14.90;99.90;;;;;;4825972;29;20042;-83
2022/08/21 02:48:34;;;;;;;2.95;2.13;;;14.90;99.90;;;;;;4825750;29;20066;-83
2022/08/21 02:51:11;;;;;;;2.13;1.70;;;14.90;99.90;;;;;;4809433;29;20066;-83
2022/08/21 02:53:41;;;;;;;1.55;1.27;;;14.90;99.90;;;;;;4791134;29;20050;-85
2022/08/21 02:56:12;;;;;;;2.75;2.55;;;14.90;99.90;;;;;;4823198;29;20058;-83
2022/08/21 02:59:12;;;;;;;2.65;1.27;;;14.90;99.90;;;;;;4821332;29;20055;-84
2022/08/21 03:01:40;;;;;;;2.50;1.20;;;14.80;99.90;;;;;;4805585;29;20063;-84
2022/08/21 03:04:08;;;;;;;1.13;1.05;;;14.80;99.90;;;;;;4791055;29;20062;-82
2022/08/21 03:06:36;;;;;;;1.38;1.27;;;14.70;99.90;;;;;;4805604;29;20051;-82
2022/08/21 03:09:03;;;;;;;1.40;1.30;;;14.80;99.90;;;;;;4806248;29;20502;-83
2022/08/21 03:11:31;;;;;;;2.05;1.60;;;14.70;99.90;;;;;;4807372;29;20054;-83
2022/08/21 03:13:59;;;;;;;1.48;1.42;;;14.70;99.90;;;;;;4805521;29;20067;-84
2022/08/21 03:16:27;;;;;;;1.17;1.08;;;14.60;99.90;;;;;;4808307;29;20057;-84
2022/08/21 03:19:02;;;;;;;1.88;1.77;;;14.60;99.90;;;;;;4824413;29;20432;-83
2022/08/21 03:21:30;;;;;;;1.25;1.15;;;14.60;99.90;;;;;;4824701;29;20054;-84
2022/08/21 03:23:57;;;;;;;2.15;1.95;;;14.50;99.90;;;;;;4825119;29;20058;-83
2022/08/21 03:26:30;;;;;;;2.08;1.42;;;14.50;99.90;;;;;;4823782;29;20049;-83
2022/08/21 03:29:09;;;;;;;1.65;1.20;;;14.50;99.90;;;;;;4824594;29;20051;-84
2022/08/21 03:31:36;;;;;;;1.75;1.65;;;14.40;99.90;;;;;;4803956;29;20066;-83
2022/08/21 03:34:04;;;;;;;2.13;1.75;;;14.50;99.90;;;;;;4805045;29;20043;-83
2022/08/21 03:36:32;;;;;;;1.17;1.08;;;14.40;99.90;;;;;;4790568;29;20046;-82
2022/08/21 03:39:00;;;;;;;1.90;1.58;;;14.40;99.90;;;;;;4807135;29;20774;-81
2022/08/21 03:41:28;;;;;;;1.50;1.38;;;14.40;99.90;;;;;;4824513;29;20049;-82
2022/08/21 03:43:56;;;;;;;1.63;1.52;;;14.40;99.90;;;;;;4824898;29;20075;-82
2022/08/21 03:46:23;;;;;;;1.90;1.80;;;14.40;99.90;;;;;;4808209;29;20046;-82
2022/08/21 03:48:52;;;;;;;1.85;1.65;;;14.40;99.90;;;;;;4807468;29;20073;-81
2022/08/21 03:51:20;;;;;;;4.65;2.70;;;14.40;99.90;;;;;;4793089;29;20059;-82
2022/08/21 03:53:47;;;;;;;2.95;1.88;;;14.40;99.90;;;;;;4807821;29;20109;-82
2022/08/21 03:56:16;;;;;;;1.58;1.48;;;14.30;99.90;;;;;;4818017;29;20058;-82
2022/08/21 03:58:44;;;;;;;8.68;2.58;;;14.40;99.90;;;;;;4834346;29;20066;-82
2022/08/21 04:01:12;;;;;;;4.97;1.95;;;14.30;99.90;;;;;;4802694;29;20062;-82
2022/08/21 04:03:40;;;;;;;1.67;1.40;;;14.30;99.90;;;;;;4789784;29;20509;-82
2022/08/21 04:06:08;;;;;;;2.42;1.83;;;14.30;99.90;;;;;;4804764;29;20050;-82
2022/08/21 04:08:36;;;;;;;2.08;1.83;;;14.30;99.90;;;;;;4784788;29;20077;-82
2022/08/21 04:11:05;;;;;;;7.60;2.28;;;14.30;99.90;;;;;;4789300;29;20047;-82
2022/08/21 04:13:33;;;;;;;2.72;1.65;;;14.30;99.90;;;;;;4804405;29;20055;-82
2022/08/21 04:16:09;;;;;;;1.33;1.23;;;14.20;99.90;;;;;;4803448;29;20062;-82
2022/08/21 04:18:37;;;;;;;3.45;1.65;;;14.20;99.90;;;;;;4807034;29;20557;-82
2022/08/21 04:21:06;;;;;;;1.70;1.48;;;14.20;99.90;;;;;;4807485;29;20081;-82
2022/08/21 04:23:37;;;;;;;1.73;1.60;;;14.20;99.90;;;;;;4807636;29;20051;-82
2022/08/21 04:26:06;;;;;;;1.83;1.73;;;14.20;99.90;;;;;;4789051;29;20050;-82
2022/08/21 04:28:37;;;;;;;3.53;1.65;;;14.20;99.90;;;;;;4804311;29;20055;-82
2022/08/21 04:31:05;;;;;;;1.60;1.50;;;14.20;99.90;;;;;;4805402;29;20061;-82
2022/08/21 04:33:33;;;;;;;2.22;1.55;;;14.20;99.90;;;;;;4805050;29;20043;-82
2022/08/21 04:36:01;;;;;;;5.78;1.65;;;14.10;99.90;;;;;;4804198;29;20050;-83
2022/08/21 04:38:31;;;;;;;1.60;1.42;;;14.00;99.90;;;;;;4806578;29;20527;-82
2022/08/21 04:41:05;;;;;;;1.55;1.23;;;14.00;99.90;;;;;;4823239;29;20051;-82
2022/08/21 04:43:33;;;;;;;2.03;1.92;;;14.00;99.90;;;;;;4822571;29;20821;-82
2022/08/21 04:46:01;;;;;;;1.90;1.30;;;14.00;99.90;;;;;;4823420;29;20516;-82
2022/08/21 04:48:29;;;;;;;2.75;2.53;;;14.00;99.90;;;;;;4806788;29;20085;-83
2022/08/21 04:51:05;;;;;;;2.67;1.98;;;14.00;99.90;;;;;;4822903;29;20520;-83
2022/08/21 04:53:58;;;;;;;2.30;1.83;;;14.00;99.90;;;;;;4817972;29;20050;-82
2022/08/21 04:56:34;;;;;;;4.72;1.98;;;13.90;99.90;;;;;;4807164;29;20058;-82
2022/08/21 04:59:06;;;;;;;1.60;1.50;;;14.00;99.90;;;;;;4822468;29;20055;-81
2022/08/21 05:01:37;;;;;;;1.75;1.65;;;14.00;99.90;;;;;;4827882;29;20391;-82
2022/08/21 05:04:14;;;;;;;1.40;1.35;;;14.00;99.90;;;;;;4795224;29;20065;-82
2022/08/21 05:06:44;;;;;;;;;;;14.00;99.90;;;;;;4791637;29;20057;-83
2022/08/21 05:09:14;;;;;;;1.38;1.27;;;14.00;99.90;;;;;;4806850;29;19928;-82
2022/08/21 05:11:42;;;;;;;5.23;1.43;;;14.00;99.90;;;;;;4822481;29;20146;-84
2022/08/21 05:14:12;;;;;;;2.35;1.50;;;14.00;99.90;;;;;;4800832;29;20054;-83
2022/08/21 05:16:41;;;;;;;2.40;1.88;;;14.00;99.90;;;;;;4823727;29;20055;-85
2022/08/21 05:19:09;;;;;;;2.15;1.42;;;14.00;99.90;;;;;;4805817;29;20049;-86
2022/08/21 05:21:42;;;;;;;4.50;1.45;;;14.00;99.90;;;;;;4791620;29;20694;-83
2022/08/21 05:24:11;;;;;;;1.25;1.20;;;14.00;99.90;;;;;;4785256;29;20054;-82
2022/08/21 05:26:42;;;;;;;1.52;1.42;;;14.10;99.90;;;;;;4804480;29;20046;-82
2022/08/21 05:29:15;;;;;;;1.40;1.30;;;14.10;99.90;;;;;;4804738;29;20046;-83
2022/08/21 05:31:44;;;;;;;1.58;1.20;;;14.10;99.90;;;;;;4791555;29;20098;-82
2022/08/21 05:34:20;;;;;;;1.30;1.17;;;14.20;99.90;;;;;;4806345;29;20050;-83
2022/08/21 05:36:50;;;;;;;1.58;1.48;;;14.30;99.90;;;;;;4808908;29;20046;-82
2022/08/21 05:39:24;;;;;;;1.58;1.48;;;14.50;99.90;;;;;;4758213;29;20062;-84
2022/08/21 05:42:15;;;;;;;3.00;0.95;;;14.70;99.90;;;;;;4755241;29;20541;-84
2022/08/21 05:44:46;;;;;;;4.10;1.42;;;14.80;99.90;;;;;;4805731;29;20680;-84
2022/08/21 05:47:15;;;;;;;1.70;1.60;;;15.00;99.90;;;;;;4768853;30;20078;-83
2022/08/21 05:49:43;;;;;;;3.97;1.38;;;15.10;99.90;;;;;;4812051;29;20055;-85
2022/08/21 05:52:21;;;;;;;1.50;1.40;;;15.20;99.90;;;;;;4797397;29;20062;-85
2022/08/21 05:54:49;;;;;;;1.63;1.52;;;15.30;99.90;;;;;;4776576;29;20066;-85
2022/08/21 05:57:17;;;;;;;3.45;1.60;;;15.40;99.90;;;;;;4790717;29;20055;-85
2022/08/21 05:59:48;;;;;;;1.90;1.80;;;15.50;99.90;;;;;;4785320;29;20058;-85
2022/08/21 06:02:21;;;;;;;3.40;2.03;;;15.50;99.90;;;;;;4787088;30;20059;-84
2022/08/21 06:04:56;;;;;;;2.25;2.05;;;15.60;99.90;;;;;;4795702;29;20650;-85
2022/08/21 06:07:26;;;;;;;1.50;1.42;;;15.60;99.90;;;;;;4785495;29;20056;-85
2022/08/21 06:09:54;;;;;;;1.63;1.52;;;15.50;99.90;;;;;;4766119;29;20046;-85
2022/08/21 06:12:22;;;;;;;1.38;1.27;;;15.60;99.90;;;;;;4798185;29;20057;-86
2022/08/21 06:14:52;;;;;;;1.88;1.77;;;15.70;99.90;;;;;;4799986;29;20043;-84
2022/08/21 06:17:25;;;;;;;1.80;1.70;;;15.80;99.90;;;;;;4791302;29;20516;-85
2022/08/21 06:19:57;;;;;;;1.50;1.40;;;15.90;99.90;;;;;;4800351;29;20062;-85
2022/08/21 06:22:27;;;;;;;4.38;1.40;;;16.00;99.90;;;;;;4773912;30;20055;-85
2022/08/21 06:24:57;;;;;;;1.50;1.40;;;16.10;99.90;;;;;;4774601;29;20065;-84
2022/08/21 06:27:24;;;;;;;2.83;1.92;;;16.10;99.90;;;;;;4802837;29;20062;-85
2022/08/21 06:29:58;;;;;;;1.35;1.35;;;16.20;99.90;;;;;;4801502;29;20046;-85
2022/08/21 06:32:29;;;;;;;1.65;1.55;;;16.30;99.90;;;;;;4775972;29;20050;-85
2022/08/21 06:34:59;;;;;;;2.25;1.88;;;16.40;99.90;;;;;;4798020;29;20540;-85
2022/08/21 06:37:34;;;;;;;1.70;1.60;;;16.50;99.90;;;;;;4786302;29;20047;-86
2022/08/21 06:40:05;;;;;;;9.18;3.38;;;16.50;99.90;;;;;;4787874;29;20051;-86
2022/08/21 06:42:41;;;;;;;5.03;3.90;;;16.60;99.90;;;;;;4781565;29;20401;-85
2022/08/21 06:45:10;;;;;;;1.42;1.30;;;16.60;99.90;;;;;;4762236;29;21549;-85
2022/08/21 06:47:41;;;;;;;2.88;1.52;;;16.60;99.90;;;;;;4775976;29;20062;-85
2022/08/21 06:50:09;;;;;;;1.60;1.50;;;16.70;99.90;;;;;;4793044;29;20646;-85
2022/08/21 06:52:40;;;;;;;2.78;2.08;;;16.80;99.90;;;;;;4811958;29;20047;-85
2022/08/21 06:55:09;;;;;;;1.38;1.27;;;16.80;99.90;;;;;;4784202;29;20050;-86
2022/08/21 06:57:38;;;;;;;1.77;1.50;;;16.80;99.90;;;;;;4788955;29;20050;-85
2022/08/21 07:00:17;;;;;;;12.48;2.67;;;16.90;99.90;;;;;;4807145;29;20047;-86
2022/08/21 07:02:45;;;;;;;2.40;2.10;;;16.90;99.90;;;;;;4789677;29;20047;-86
2022/08/21 07:05:13;;;;;;;2.15;1.95;;;16.90;99.90;;;;;;4790379;29;20054;-87
2022/08/21 07:07:47;;;;;;;1.83;1.60;;;17.00;99.90;;;;;;4807043;29;20047;-87
2022/08/21 07:10:15;;;;;;;3.80;2.00;;;17.00;99.90;;;;;;4789906;29;20073;-86
2022/08/21 07:12:54;;;;;;;1.85;1.75;;;17.10;99.90;;;;;;4807043;29;20058;-85
2022/08/21 07:15:29;;;;;;;2.47;2.05;;;17.20;99.90;;;;;;4792885;29;20055;-87
2022/08/21 07:17:59;;;;;;;1.98;1.88;;;17.30;99.90;;;;;;4780661;29;20044;-86
2022/08/21 07:20:30;;;;;;;3.53;2.33;;;17.30;99.90;;;;;;4805592;29;20054;-86
2022/08/21 07:23:03;;;;;;;5.35;2.67;;;17.40;99.90;;;;;;4804393;29;20055;-86
2022/08/21 07:25:47;;;;;;;2.47;2.25;;;18.00;99.90;;;;;;4780141;29;20065;-85
2022/08/21 07:28:26;;;;;;;3.20;2.28;;;18.60;99.90;;;;;;4791278;29;20062;-86
2022/08/21 07:31:00;;;;;;;2.60;2.38;;;18.30;99.90;;;;;;4790055;29;20534;-87
2022/08/21 07:33:39;;;;;;;2.58;2.15;;;17.90;99.90;;;;;;4789316;29;20066;-85
2022/08/21 07:36:13;;;;;;;2.33;2.13;;;17.90;99.90;;;;;;4758179;30;20075;-87
2022/08/21 07:38:41;;;;;;;2.75;2.53;;;18.10;99.90;;;;;;4756763;30;20055;-87
2022/08/21 07:41:21;;;;;;;8.30;2.97;;;17.90;99.90;;;;;;4757052;29;20512;-86
2022/08/21 07:43:52;;;;;;;2.72;2.47;;;17.70;99.90;;;;;;4787634;30;20392;-87
2022/08/21 07:46:21;;;;;;;3.53;2.22;;;17.70;99.90;;;;;;4771797;30;20070;-87
2022/08/21 07:48:55;;;;;;;2.03;1.90;;;17.90;99.90;;;;;;4774575;29;20061;-87
2022/08/21 07:51:28;;;;;;;4.75;2.92;;;17.80;99.90;;;;;;4790223;29;20061;-86
2022/08/21 07:53:59;;;;;;;2.95;2.70;;;17.70;99.90;;;;;;4805974;29;20061;-84
2022/08/21 07:56:28;;;;;;;2.40;2.20;;;17.80;99.90;;;;;;4805668;29;20070;-85
2022/08/21 07:59:02;;;;;;;8.95;3.25;;;17.90;99.90;;;;;;4795479;29;20291;-85
2022/08/21 08:01:30;;;;;;;4.32;3.92;;;18.00;99.90;;;;;;4824167;29;20607;-85
2022/08/21 08:03:58;;;;;;;7.10;3.03;;;18.10;99.90;;;;;;4790445;29;20059;-85
2022/08/21 08:06:26;;;;;;;4.60;2.95;;;18.10;99.90;;;;;;4803771;29;20046;-84
2022/08/21 08:08:53;;;;;;;4.10;2.40;;;18.10;99.90;;;;;;4822713;29;20481;-84
2022/08/21 08:11:22;;;;;;;5.13;2.67;;;18.20;99.90;;;;;;4806041;29;20043;-84
2022/08/21 08:13:51;;;;;;;3.53;3.22;;;18.20;99.90;;;;;;4792423;29;20046;-84
2022/08/21 08:16:19;;;;;;;3.65;2.90;;;18.30;99.90;;;;;;4808102;29;20058;-84
2022/08/21 08:18:47;;;;;;;3.38;3.08;;;18.30;99.90;;;;;;4807340;29;20058;-85
2022/08/21 09:16:28;;;;;;;13.02;3.42;;;19.20;99.90;;;;;;4821776;29;20049;-86
2022/08/21 09:20:15;;;;;;;12.43;4.32;;;19.50;99.90;;;;;;4984821;24;20069;-87
2022/08/21 09:40:36;;;;;;;;;;;;;;;;;;;;;
2022/08/21 09:59:25;;;;;;;3.92;3.50;;;20.30;99.90;;;;;;5104234;24;20050;-86
2022/08/21 12:24:00;;;;;;;5.07;2.67;;;22.10;99.90;;;;;;4824518;29;20054;-86
2022/08/21 12:26:49;;;;;;;3.75;2.35;;;21.60;99.90;;;;;;4822312;29;20057;-87
2022/08/21 12:29:52;;;;;;;1.67;1.42;;;21.50;99.90;;;;;;4809536;29;20039;-86
2022/08/21 12:32:59;;;;;;;2.83;2.63;;;21.50;99.90;;;;;;4822097;29;20049;-85
2022/08/21 12:35:45;;;;;;;3.42;2.35;;;21.60;99.90;;;;;;4816547;29;20412;-87
2022/08/21 12:39:13;;;;;;;4.88;3.78;;;22.00;99.90;;;;;;4836123;29;20074;-85
2022/08/21 12:42:42;;;;;;;2.50;2.30;;;22.20;99.90;;;;;;5149628;27;20446;-84
2022/08/21 12:46:00;;;;;;;2.38;2.17;;;22.10;99.90;;;;;;5098552;28;20054;-85
2022/08/21 12:48:59;;;;;;;2.25;2.15;;;22.00;99.90;;;;;;5125909;28;20511;-87
2022/08/21 12:51:41;;;;;;;5.90;3.60;;;22.10;99.90;;;;;;5070393;28;20040;-89
2022/08/21 12:54:23;;;;;;;3.30;2.85;;;22.10;99.90;;;;;;5083928;28;20035;-87
2022/08/21 12:57:05;;;;;;;3.00;2.17;;;22.10;99.90;;;;;;5073400;27;20047;-87
2022/08/21 12:59:57;;;;;;;6.50;3.10;;;22.10;99.90;;;;;;5078526;28;20040;-88
2022/08/21 13:02:47;;;;;;;2.92;2.63;;;22.20;99.90;;;;;;5094614;28;20047;-88
2022/08/21 13:05:34;;;;;;;3.42;2.20;;;21.80;99.90;;;;;;5091264;28;20469;-88
2022/08/21 13:08:10;;;;;;;3.28;2.40;;;21.50;99.90;;;;;;5105005;28;20048;-88
2022/08/21 13:10:49;;;;;;;7.25;2.25;;;21.10;99.90;;;;;;5087728;28;20048;-89
2022/08/21 13:13:55;;;;;;;2.85;2.22;;;20.90;99.90;;;;;;5071284;28;20048;-87
2022/08/21 13:16:32;;;;;;;2.83;2.55;;;20.90;99.90;;;;;;5072716;28;20056;-89
2022/08/21 13:19:05;;;;;;;;;;;21.20;99.90;;;;;;5088968;28;20067;-89
2022/08/21 13:21:42;;;;;;;2.72;2.38;;;21.60;99.90;;;;;;5107682;28;19943;-90
2022/08/21 13:24:21;;;;;;;2.67;2.30;;;21.80;99.90;;;;;;5108875;28;20048;-90
2022/08/21 13:27:24;;;;;;;2.13;1.77;;;21.80;99.90;;;;;;5091058;28;20484;-89
2022/08/21 13:30:21;;;;;;;6.75;2.53;;;21.60;99.90;;;;;;5090749;28;20052;-88
2022/08/21 13:33:05;;;;;;;2.92;1.65;;;21.50;99.90;;;;;;5090049;27;20052;-90
2022/08/21 13:36:03;;;;;;;1.80;1.70;;;21.90;99.90;;;;;;5107754;28;20393;-88
2022/08/21 13:38:39;;;;;;;24.08;2.55;;;22.10;99.90;;;;;;5073165;28;20397;-87
2022/08/21 13:41:28;;;;;;;3.25;2.20;;;22.20;99.90;;;;;;5092261;27;20054;-89
2022/08/21 13:44:26;;;;;;;2.25;1.90;;;21.80;99.90;;;;;;5055882;28;20079;-87
2022/08/21 13:46:54;;;;;;;3.08;2.88;;;21.60;99.90;;;;;;5086850;28;20413;-88
2022/08/21 13:49:32;;;;;;;1.90;1.52;;;21.70;99.90;;;;;;5043286;28;20052;-88
2022/08/21 13:52:25;;;;;;;1.98;1.50;;;21.60;99.90;;;;;;5065045;28;20394;-89
2022/08/21 13:55:38;;;;;;;1.70;1.60;;;21.60;99.90;;;;;;5034941;28;20036;-88
2022/08/21 13:58:14;;;;;;;3.92;1.90;;;22.00;99.90;;;;;;5056407;28;20048;-90
2022/08/21 14:01:00;;;;;;;2.83;2.58;;;22.20;99.90;;;;;;5021772;28;20045;-90
2022/08/21 14:03:45;;;;;;;2.03;1.92;;;22.40;99.90;;;;;;5039978;28;20413;-90
2022/08/21 14:06:27;;;;;;;3.13;2.65;;;22.60;99.90;;;;;;5076981;28;20060;-89
2022/08/21 14:09:49;;;;;;;2.20;2.10;;;22.70;99.90;;;;;;5035463;28;20046;-86
2022/08/21 14:12:36;;;;;;;;;;;22.80;99.90;;;;;;5044222;28;20310;-86
2022/08/21 14:15:30;;;;;;;1.80;1.70;;;22.70;99.90;;;;;;5061497;28;19920;-87
2022/08/21 14:18:26;;;;;;;3.95;2.67;;;22.40;99.90;;;;;;5072240;28;20040;-87
2022/08/21 14:21:09;;;;;;;3.25;3.05;;;22.40;99.90;;;;;;5064213;28;20040;-87
2022/08/21 14:23:47;;;;;;;3.28;1.80;;;22.50;99.90;;;;;;5055103;28;20482;-88
2022/08/21 14:26:17;;;;;;;3.15;1.95;;;22.10;99.90;;;;;;5055000;28;20504;-88
2022/08/21 14:28:45;;;;;;;2.45;1.75;;;21.80;99.90;;;;;;5071973;28;20052;-87
2022/08/21 14:31:18;;;;;;;24.15;3.85;;;21.60;99.90;;;;;;5059139;28;20045;-87
2022/08/21 14:33:47;;;;;;;2.58;2.08;;;21.90;99.90;;;;;;5049498;28;20049;-86
2022/08/21 14:36:21;;;;;;;2.58;2.17;;;22.30;99.90;;;;;;5057221;28;20058;-88
2022/08/21 14:39:05;;;;;;;3.05;2.78;;;22.50;99.90;;;;;;5062536;28;20053;-87
2022/08/21 14:41:39;;;;;;;3.20;2.10;;;22.50;99.90;;;;;;5087242;28;20044;-87
2022/08/21 14:44:18;;;;;;;5.07;2.00;;;22.40;99.90;;;;;;5091645;28;20052;-87
2022/08/21 14:46:54;;;;;;;2.42;2.22;;;22.60;99.90;;;;;;5096021;28;20044;-87
2022/08/21 14:50:09;;;;;;;2.45;2.08;;;22.80;99.90;;;;;;5062556;28;20051;-86
2022/08/21 14:52:57;;;;;;;2.33;2.15;;;22.90;99.90;;;;;;5079002;28;20386;-87
2022/08/21 14:55:28;;;;;;;4.43;1.90;;;22.50;99.90;;;;;;5093599;28;20052;-88
2022/08/21 14:58:02;;;;;;;2.00;1.77;;;22.20;99.90;;;;;;5093094;28;20044;-88
2022/08/21 15:00:41;;;;;;;1.65;1.55;;;22.30;99.90;;;;;;5093771;28;20058;-87
2022/08/21 15:03:21;;;;;;;2.03;1.83;;;22.20;99.90;;;;;;5086624;28;20036;-88
2022/08/21 15:06:02;;;;;;;4.25;2.45;;;22.10;99.90;;;;;;5090936;27;20036;-87
2022/08/21 15:08:32;;;;;;;1.60;1.50;;;22.40;99.90;;;;;;5093060;28;20117;-87
2022/08/21 15:11:04;;;;;;;2.28;2.03;;;22.50;99.90;;;;;;5080827;28;20056;-87
2022/08/21 15:13:52;;;;;;;2.53;1.77;;;22.10;99.90;;;;;;5070743;28;20041;-86
2022/08/21 15:16:57;;;;;;;14.02;2.60;;;21.90;99.90;;;;;;5074984;28;20056;-87
2022/08/21 15:19:52;;;;;;;2.50;2.30;;;22.20;99.90;;;;;;5066540;28;20052;-85
2022/08/21 15:22:22;;;;;;;6.90;2.60;;;22.50;99.90;;;;;;5091486;28;20048;-87
2022/08/21 15:25:02;;;;;;;2.58;2.17;;;22.60;99.90;;;;;;5091090;28;20052;-87
2022/08/21 15:27:34;;;;;;;3.00;2.13;;;22.40;99.90;;;;;;5075237;28;20051;-88
2022/08/21 15:30:04;;;;;;;3.22;2.55;;;22.00;99.90;;;;;;5091243;28;20047;-87
2022/08/21 15:33:13;;;;;;;3.38;3.08;;;22.20;99.90;;;;;;5092072;28;20505;-88
2022/08/21 15:35:41;;;;;;;2.20;1.92;;;22.60;99.90;;;;;;5070380;28;20539;-87
2022/08/21 15:38:17;;;;;;;8.98;3.40;;;22.70;99.90;;;;;;5086863;28;20074;-85
2022/08/21 15:40:45;;;;;;;2.15;2.05;;;22.90;99.90;;;;;;5101929;28;20082;-86
2022/08/21 15:43:28;;;;;;;2.38;2.17;;;23.10;99.90;;;;;;5112015;28;20511;-86
2022/08/21 15:46:12;;;;;;;2.47;2.17;;;23.30;99.90;;;;;;5077739;28;20040;-86
2022/08/21 15:48:40;;;;;;;2.83;2.22;;;23.30;99.90;;;;;;5094337;28;20484;-86
2022/08/21 15:51:10;;;;;;;3.17;2.38;;;23.10;99.90;;;;;;5077819;28;20066;-87
2022/08/21 15:53:56;;;;;;;2.60;1.83;;;22.70;99.90;;;;;;5101670;28;20033;-87
2022/08/21 15:56:34;;;;;;;2.05;1.85;;;22.60;99.90;;;;;;5101066;28;20047;-86
2022/08/21 15:59:16;;;;;;;2.20;2.00;;;22.70;99.90;;;;;;5111958;28;20508;-87
2022/08/21 16:01:45;;;;;;;1.80;1.67;;;22.90;99.90;;;;;;5082078;28;20052;-88
2022/08/21 16:04:24;;;;;;;4.53;2.05;;;22.90;99.90;;;;;;5092333;28;20055;-87
2022/08/21 16:06:55;;;;;;;4.30;1.80;;;22.90;99.90;;;;;;5112440;28;20054;-86
2022/08/21 16:09:36;;;;;;;;;;;22.90;99.90;;;;;;5112665;28;20036;-88
2022/08/21 16:12:10;;;;;;;2.30;2.05;;;22.80;99.90;;;;;;5113008;28;20353;-87
2022/08/21 16:15:17;;;;;;;2.13;1.90;;;22.80;99.90;;;;;;5112080;28;20719;-87
2022/08/21 16:17:57;;;;;;;5.28;2.53;;;22.90;99.90;;;;;;5094357;28;20035;-88
2022/08/21 16:20:28;;;;;;;2.53;2.00;;;23.00;99.90;;;;;;5094930;28;20051;-86
2022/08/21 16:22:57;;;;;;;2.65;1.73;;;23.00;99.90;;;;;;5093064;28;20044;-86
2022/08/21 16:25:26;;;;;;;1.85;1.48;;;23.10;99.90;;;;;;5090253;28;20507;-87
2022/08/21 16:28:01;;;;;;;3.25;2.80;;;23.00;99.90;;;;;;5113078;28;20044;-87
2022/08/21 16:30:49;;;;;;;2.63;2.22;;;23.00;99.90;;;;;;5111918;28;20061;-86
2022/08/21 16:33:43;;;;;;;5.47;2.00;;;22.80;99.90;;;;;;5112082;28;20043;-87
2022/08/21 16:36:14;;;;;;;3.80;3.15;;;22.40;99.90;;;;;;5099724;28;20044;-87
2022/08/21 16:38:42;;;;;;;2.25;1.98;;;22.30;99.90;;;;;;5073464;28;20052;-88
2022/08/21 16:41:32;;;;;;;2.25;2.15;;;22.50;99.90;;;;;;5079939;28;20042;-87
2022/08/21 16:44:01;;;;;;;2.67;2.47;;;22.60;99.90;;;;;;5088405;28;20055;-88
2022/08/21 16:46:32;;;;;;;2.00;1.90;;;22.70;99.90;;;;;;5087374;28;20044;-87
2022/08/21 16:49:02;;;;;;;2.85;2.30;;;22.80;99.90;;;;;;5070197;28;20068;-87
2022/08/21 16:51:30;;;;;;;3.72;3.10;;;22.70;99.90;;;;;;5087771;28;20390;-87
2022/08/21 16:54:00;;;;;;;3.17;2.70;;;22.80;99.90;;;;;;5091463;28;20060;-87
2022/08/21 16:56:30;;;;;;;3.10;2.15;;;22.80;99.90;;;;;;5092036;28;20040;-86
2022/08/21 16:59:00;;;;;;;;;;;22.80;99.90;;;;;;5075060;28;20040;-87
2022/08/21 17:01:32;;;;;;;2.72;2.03;;;22.80;99.90;;;;;;5096882;27;19920;-87
2022/08/21 17:04:08;;;;;;;3.40;2.35;;;22.80;99.90;;;;;;5092000;28;20117;-88
2022/08/21 17:06:39;;;;;;;5.70;2.65;;;22.80;99.90;;;;;;5091500;28;20051;-87
2022/08/21 17:09:14;;;;;;;2.92;2.58;;;22.80;99.90;;;;;;5091031;28;20036;-87
2022/08/21 17:11:48;;;;;;;3.35;2.35;;;22.70;99.90;;;;;;5092033;28;20052;-87
2022/08/21 17:14:48;;;;;;;3.03;2.72;;;23.00;99.90;;;;;;5091335;28;20048;-87
2022/08/21 17:17:16;;;;;;;1.85;1.75;;;23.30;99.90;;;;;;5069966;28;20047;-88
2022/08/21 17:19:45;;;;;;;13.35;3.45;;;23.60;99.90;;;;;;5071570;28;20067;-87